Time,TemperatureF,DewpointF,PressureIn,WindDirection,WindDirectionDegrees,WindSpeedMPH,WindSpeedGustMPH,Humidity,HourlyPrecipIn,Conditions,Clouds,dailyrainin,SoftwareType,DateUTC
2013-10-01 00:05:00,59.4,46.4,-100.00,North,-999,0.0,0.0,62,0.00,,,-99.99,FreeWX-Wi 1.02,2013-10-01 04:05:00,
2013-10-01 00:15:00,59.4,46.4,-100.00,North,-999,0.0,0.0,62,0.00,,,-99.99,FreeWX-Wi 1.02,2013-10-01 04:15:00,
2013-10-01 00:25:00,59.2,46.2,-100.00,North,-999,0.0,0.0,62,0.00,,,-99.99,FreeWX-Wi 1.02,2013-10-01 04:25:00,
2013-10-01 00:35:00,59.2,46.2,-100.00,North,-999,0.0,0.0,62,0.00,,,-99.99,FreeWX-Wi 1.02,2013-10-01 04:35:00,
2013-10-01 00:45:00,59.0,46.0,-100.00,North,-999,0.0,0.0,62,0.00,,,-99.99,FreeWX-Wi 1.02,2013-10-01 04:45:00,
2013-10-01 00:55:00,59.0,46.4,-100.00,North,-999,0.0,0.0,63,0.00,,,-99.99,FreeWX-Wi 1.02,2013-10-01 04:55:00,
2013-10-01 01:05:00,58.8,46.2,-100.00,North,-999,0.0,0.0,63,0.00,,,-99.99,FreeWX-Wi 1.02,2013-10-01 05:05:00,
2013-10-01 01:15:00,58.8,46.2,-100.00,North,-999,0.0,0.0,63,0.00,,,-99.99,FreeWX-Wi 1.02,2013-10-01 05:15:00,
2013-10-01 01:25:00,58.8,46.6,-100.00,North,-999,0.0,0.0,64,0.00,,,-99.99,FreeWX-Wi 1.02,2013-10-01 05:25:00,
2013-10-01 01:35:00,58.6,46.6,-100.00,North,-999,0.0,0.0,64,0.00,,,-99.99,FreeWX-Wi 1.02,2013-10-01 05:35:00,
2013-10-01 01:45:00,58.5,46.4,-100.00,North,-999,0.0,0.0,64,0.00,,,-99.99,FreeWX-Wi 1.02,2013-10-01 05:45:00,
2013-10-01 01:55:00,58.5,46.4,-100.00,North,-999,0.0,0.0,64,0.00,,,-99.99,FreeWX-Wi 1.02,2013-10-01 05:55:00,
2013-10-01 02:05:00,58.5,46.4,-100.00,North,-999,0.0,0.0,64,0.00,,,-99.99,FreeWX-Wi 1.02,2013-10-01 06:05:00,
2013-10-01 02:15:00,58.5,46.8,-100.00,North,-999,0.0,0.0,65,0.00,,,-99.99,FreeWX-Wi 1.02,2013-10-01 06:15:00,
2013-10-01 02:25:00,58.3,46.6,-100.00,North,-999,0.0,0.0,65,0.00,,,-99.99,FreeWX-Wi 1.02,2013-10-01 06:25:00,
2013-10-01 02:35:00,58.3,46.6,-100.00,North,-999,0.0,0.0,65,0.00,,,-99.99,FreeWX-Wi 1.02,2013-10-01 06:35:00,
2013-10-01 02:45:00,58.1,46.4,-100.00,North,-999,0.0,0.0,65,0.00,,,-99.99,FreeWX-Wi 1.02,2013-10-01 06:45:00,
2013-10-01 02:55:00,58.1,46.4,-100.00,North,-999,0.0,0.0,65,0.00,,,-99.99,FreeWX-Wi 1.02,2013-10-01 06:55:00,
2013-10-01 03:05:00,57.9,46.2,-100.00,North,-999,0.0,0.0,65,0.00,,,-99.99,FreeWX-Wi 1.02,2013-10-01 07:05:00,
2013-10-01 03:15:00,57.9,46.2,-100.00,North,-999,0.0,0.0,65,0.00,,,-99.99,FreeWX-Wi 1.02,2013-10-01 07:15:00,
2013-10-01 03:25:00,57.7,46.0,-100.00,North,-999,0.0,0.0,65,0.00,,,-99.99,FreeWX-Wi 1.02,2013-10-01 07:25:00,
2013-10-01 03:35:00,57.6,45.9,-100.00,North,-999,0.0,0.0,65,0.00,,,-99.99,FreeWX-Wi 1.02,2013-10-01 07:35:00,
2013-10-01 03:45:00,57.4,45.7,-100.00,North,-999,0.0,0.0,65,0.00,,,-99.99,FreeWX-Wi 1.02,2013-10-01 07:45:00,
2013-10-01 03:55:00,57.2,45.5,-100.00,North,-999,0.0,0.0,65,0.00,,,-99.99,FreeWX-Wi 1.02,2013-10-01 07:55:00,
2013-10-01 04:05:00,57.2,45.5,-100.00,North,-999,0.0,0.0,65,0.00,,,-99.99,FreeWX-Wi 1.02,2013-10-01 08:05:00,
2013-10-01 04:15:00,57.0,45.9,-100.00,North,-999,0.0,0.0,66,0.00,,,-99.99,FreeWX-Wi 1.02,2013-10-01 08:15:00,
2013-10-01 04:25:00,57.0,45.9,-100.00,North,-999,0.0,0.0,66,0.00,,,-99.99,FreeWX-Wi 1.02,2013-10-01 08:25:00,
2013-10-01 04:35:00,56.8,45.7,-100.00,North,-999,0.0,0.0,66,0.00,,,-99.99,FreeWX-Wi 1.02,2013-10-01 08:35:00,
2013-10-01 04:45:00,56.7,45.5,-100.00,North,-999,0.0,0.0,66,0.00,,,-99.99,FreeWX-Wi 1.02,2013-10-01 08:45:00,
2013-10-01 04:55:00,56.3,44.6,-100.00,North,-999,0.0,0.0,65,0.00,,,-99.99,FreeWX-Wi 1.02,2013-10-01 08:55:00,
2013-10-01 05:05:00,56.1,44.6,-100.00,North,-999,0.0,0.0,65,0.00,,,-99.99,FreeWX-Wi 1.02,2013-10-01 09:05:00,
2013-10-01 05:16:00,56.3,45.1,-100.00,North,-999,0.0,0.0,66,0.00,,,-99.99,FreeWX-Wi 1.02,2013-10-01 09:16:00,
2013-10-01 05:26:00,56.3,45.1,-100.00,North,-999,0.0,0.0,66,0.00,,,-99.99,FreeWX-Wi 1.02,2013-10-01 09:26:00,
2013-10-01 05:36:00,56.3,45.1,-100.00,North,-999,0.0,0.0,66,0.00,,,-99.99,FreeWX-Wi 1.02,2013-10-01 09:36:00,
2013-10-01 05:46:00,56.3,45.5,-100.00,North,-999,0.0,0.0,67,0.00,,,-99.99,FreeWX-Wi 1.02,2013-10-01 09:46:00,
2013-10-01 05:56:00,56.3,45.5,-100.00,North,-999,0.0,0.0,67,0.00,,,-99.99,FreeWX-Wi 1.02,2013-10-01 09:56:00,
2013-10-01 06:06:00,56.3,45.5,-100.00,North,-999,0.0,0.0,67,0.00,,,-99.99,FreeWX-Wi 1.02,2013-10-01 10:06:00,
2013-10-01 06:16:00,56.3,45.5,-100.00,North,-999,0.0,0.0,67,0.00,,,-99.99,FreeWX-Wi 1.02,2013-10-01 10:16:00,
2013-10-01 06:26:00,56.3,45.5,-100.00,North,-999,0.0,0.0,67,0.00,,,-99.99,FreeWX-Wi 1.02,2013-10-01 10:26:00,
2013-10-01 06:36:00,56.3,45.9,-100.00,North,-999,0.0,0.0,68,0.00,,,-99.99,FreeWX-Wi 1.02,2013-10-01 10:36:00,
2013-10-01 06:46:00,56.3,45.9,-100.00,North,-999,0.0,0.0,68,0.00,,,-99.99,FreeWX-Wi 1.02,2013-10-01 10:46:00,
2013-10-01 06:56:00,55.9,45.5,-100.00,North,-999,0.0,0.0,68,0.00,,,-99.99,FreeWX-Wi 1.02,2013-10-01 10:56:00,
2013-10-01 07:06:00,55.9,45.5,-100.00,North,-999,0.0,0.0,68,0.00,,,-99.99,FreeWX-Wi 1.02,2013-10-01 11:06:00,
2013-10-01 07:16:00,55.9,45.5,-100.00,North,-999,0.0,0.0,68,0.00,,,-99.99,FreeWX-Wi 1.02,2013-10-01 11:16:00,
2013-10-01 07:26:00,55.9,45.5,-100.00,North,-999,0.0,0.0,68,0.00,,,-99.99,FreeWX-Wi 1.02,2013-10-01 11:26:00,
2013-10-01 07:36:00,56.1,45.7,-100.00,North,-999,0.0,0.0,68,0.00,,,-99.99,FreeWX-Wi 1.02,2013-10-01 11:36:00,
2013-10-01 07:46:00,55.9,45.5,-100.00,North,-999,0.0,0.0,68,0.00,,,-99.99,FreeWX-Wi 1.02,2013-10-01 11:46:00,
2013-10-01 07:56:00,55.9,45.5,-100.00,North,-999,0.0,0.0,68,0.00,,,-99.99,FreeWX-Wi 1.02,2013-10-01 11:56:00,
2013-10-01 08:06:00,55.9,45.5,-100.00,North,-999,0.0,0.0,68,0.00,,,-99.99,FreeWX-Wi 1.02,2013-10-01 12:06:00,
2013-10-01 08:26:00,55.6,45.1,-100.00,North,-999,0.0,0.0,68,0.00,,,-99.99,FreeWX-Wi 1.02,2013-10-01 12:26:00,
2013-10-01 08:36:00,55.6,45.1,-100.00,North,-999,0.0,0.0,68,0.00,,,-99.99,FreeWX-Wi 1.02,2013-10-01 12:36:00,
2013-10-01 08:46:00,55.6,45.1,-100.00,North,-999,0.0,0.0,68,0.00,,,-99.99,FreeWX-Wi 1.02,2013-10-01 12:46:00,
2013-10-01 08:56:00,55.8,45.3,-100.00,North,-999,0.0,0.0,68,0.00,,,-99.99,FreeWX-Wi 1.02,2013-10-01 12:56:00,
2013-10-01 09:06:00,55.9,45.5,-100.00,North,-999,0.0,0.0,68,0.00,,,-99.99,FreeWX-Wi 1.02,2013-10-01 13:06:00,
2013-10-01 09:16:00,56.3,46.2,-100.00,North,-999,0.0,0.0,69,0.00,,,-99.99,FreeWX-Wi 1.02,2013-10-01 13:16:00,
2013-10-01 09:26:00,56.8,46.8,-100.00,North,-999,0.0,0.0,69,0.00,,,-99.99,FreeWX-Wi 1.02,2013-10-01 13:26:00,
2013-10-01 09:36:00,57.2,47.1,-100.00,North,-999,0.0,0.0,69,0.00,,,-99.99,FreeWX-Wi 1.02,2013-10-01 13:36:00,
2013-10-01 09:46:00,57.7,48.0,-100.00,North,-999,0.0,0.0,70,0.00,,,-99.99,FreeWX-Wi 1.02,2013-10-01 13:46:00,
2013-10-01 09:56:00,58.3,48.6,-100.00,North,-999,0.0,0.0,70,0.00,,,-99.99,FreeWX-Wi 1.02,2013-10-01 13:56:00,
2013-10-01 10:06:00,59.2,49.5,-100.00,North,-999,0.0,0.0,70,0.00,,,-99.99,FreeWX-Wi 1.02,2013-10-01 14:06:00,
2013-10-01 10:16:00,59.9,50.0,-100.00,North,-999,0.0,0.0,70,0.00,,,-99.99,FreeWX-Wi 1.02,2013-10-01 14:16:00,
2013-10-01 10:27:00,60.6,51.1,-100.00,North,-999,0.0,0.0,71,0.00,,,-99.99,FreeWX-Wi 1.02,2013-10-01 14:27:00,
2013-10-01 10:37:00,61.7,52.2,-100.00,North,-999,0.0,0.0,71,0.00,,,-99.99,FreeWX-Wi 1.02,2013-10-01 14:37:00,
2013-10-01 10:47:00,62.6,53.1,-100.00,North,-999,0.0,0.0,71,0.00,,,-99.99,FreeWX-Wi 1.02,2013-10-01 14:47:00,
2013-10-01 10:57:00,63.7,54.1,-100.00,North,-999,0.0,0.0,71,0.00,,,-99.99,FreeWX-Wi 1.02,2013-10-01 14:57:00,
2013-10-01 11:07:00,64.6,55.0,-100.00,North,-999,0.0,0.0,71,0.00,,,-99.99,FreeWX-Wi 1.02,2013-10-01 15:07:00,
2013-10-01 11:17:00,65.5,55.8,-100.00,North,-999,0.0,0.0,71,0.00,,,-99.99,FreeWX-Wi 1.02,2013-10-01 15:17:00,
2013-10-01 11:27:00,66.2,56.1,-100.00,North,-999,0.0,0.0,70,0.00,,,-99.99,FreeWX-Wi 1.02,2013-10-01 15:27:00,
2013-10-01 11:37:00,67.3,57.2,-100.00,North,-999,0.0,0.0,70,0.00,,,-99.99,FreeWX-Wi 1.02,2013-10-01 15:37:00,
2013-10-01 11:47:00,68.4,57.4,-100.00,North,-999,0.0,2.2,68,0.00,,,-99.99,FreeWX-Wi 1.02,2013-10-01 15:47:00,
2013-10-01 11:57:00,69.6,57.7,-100.00,North,-999,0.0,0.0,66,0.00,,,-99.99,FreeWX-Wi 1.02,2013-10-01 15:57:00,
2013-10-01 12:07:00,70.9,57.2,-100.00,North,-999,0.0,0.0,62,0.00,,,-99.99,FreeWX-Wi 1.02,2013-10-01 16:07:00,
2013-10-01 12:17:00,72.1,56.5,-100.00,North,-999,0.0,0.0,58,0.00,,,-99.99,FreeWX-Wi 1.02,2013-10-01 16:17:00,
2013-10-01 12:27:00,73.6,55.4,-100.00,North,-999,0.0,0.0,53,0.00,,,-99.99,FreeWX-Wi 1.02,2013-10-01 16:27:00,
2013-10-01 12:37:00,74.8,54.3,-100.00,North,-999,0.0,2.7,49,0.00,,,-99.99,FreeWX-Wi 1.02,2013-10-01 16:37:00,
2013-10-01 12:47:00,75.2,53.1,-100.00,North,-999,0.0,0.0,46,0.00,,,-99.99,FreeWX-Wi 1.02,2013-10-01 16:47:00,
2013-10-01 12:57:00,75.2,51.8,-100.00,North,-999,0.0,0.0,44,0.00,,,-99.99,FreeWX-Wi 1.02,2013-10-01 16:57:00,
2013-10-01 13:07:00,74.8,51.4,-100.00,North,-999,0.0,0.0,44,0.00,,,-99.99,FreeWX-Wi 1.02,2013-10-01 17:07:00,
2013-10-01 13:17:00,74.8,50.9,-100.00,North,-999,0.0,2.2,43,0.00,,,-99.99,FreeWX-Wi 1.02,2013-10-01 17:17:00,
2013-10-01 13:27:00,74.7,50.7,-100.00,North,-999,0.0,2.7,43,0.00,,,-99.99,FreeWX-Wi 1.02,2013-10-01 17:27:00,
2013-10-01 13:37:00,74.7,50.0,-100.00,North,-999,0.0,4.5,42,0.00,,,-99.99,FreeWX-Wi 1.02,2013-10-01 17:37:00,
2013-10-01 13:47:00,74.3,50.4,-100.00,North,-999,0.0,0.0,43,0.00,,,-99.99,FreeWX-Wi 1.02,2013-10-01 17:47:00,
2013-10-01 13:57:00,74.1,49.5,-100.00,North,-999,0.0,0.0,42,0.00,,,-99.99,FreeWX-Wi 1.02,2013-10-01 17:57:00,
2013-10-01 14:07:00,73.9,48.7,-100.00,North,-999,0.0,0.0,41,0.00,,,-99.99,FreeWX-Wi 1.02,2013-10-01 18:07:00,
2013-10-01 14:17:00,73.8,48.6,-100.00,North,-999,0.0,0.0,41,0.00,,,-99.99,FreeWX-Wi 1.02,2013-10-01 18:17:00,
2013-10-01 14:27:00,73.8,48.6,-100.00,North,-999,0.0,0.0,41,0.00,,,-99.99,FreeWX-Wi 1.02,2013-10-01 18:27:00,
2013-10-01 14:37:00,73.6,48.4,-100.00,North,-999,0.0,0.0,41,0.00,,,-99.99,FreeWX-Wi 1.02,2013-10-01 18:37:00,
2013-10-01 14:47:00,73.8,48.6,-100.00,North,-999,0.0,0.0,41,0.00,,,-99.99,FreeWX-Wi 1.02,2013-10-01 18:47:00,
2013-10-01 14:57:00,73.6,48.4,-100.00,North,-999,0.0,0.0,41,0.00,,,-99.99,FreeWX-Wi 1.02,2013-10-01 18:57:00,
2013-10-01 15:07:00,73.6,47.8,-100.00,North,-999,0.0,0.0,40,0.00,,,-99.99,FreeWX-Wi 1.02,2013-10-01 19:07:00,
2013-10-01 15:17:00,73.6,48.4,-100.00,North,-999,0.0,0.0,41,0.00,,,-99.99,FreeWX-Wi 1.02,2013-10-01 19:17:00,
2013-10-01 15:27:00,73.6,47.1,-100.00,North,-999,0.0,0.0,39,0.00,,,-99.99,FreeWX-Wi 1.02,2013-10-01 19:27:00,
2013-10-01 15:37:00,73.4,47.7,-100.00,North,-999,0.0,0.0,40,0.00,,,-99.99,FreeWX-Wi 1.02,2013-10-01 19:37:00,
2013-10-01 15:47:00,73.0,48.6,-100.00,North,-999,0.0,0.0,42,0.00,,,-99.99,FreeWX-Wi 1.02,2013-10-01 19:47:00,
2013-10-01 15:58:00,72.9,49.1,-100.00,North,-999,0.0,0.0,43,0.00,,,-99.99,FreeWX-Wi 1.02,2013-10-01 19:58:00,
2013-10-01 16:08:00,72.9,49.6,-100.00,North,-999,0.0,0.0,44,0.00,,,-99.99,FreeWX-Wi 1.02,2013-10-01 20:08:00,
2013-10-01 16:18:00,72.9,49.6,-100.00,North,-999,0.0,0.0,44,0.00,,,-99.99,FreeWX-Wi 1.02,2013-10-01 20:18:00,
2013-10-01 16:28:00,72.7,49.5,-100.00,North,-999,0.0,0.0,44,0.00,,,-99.99,FreeWX-Wi 1.02,2013-10-01 20:28:00,
2013-10-01 16:38:00,72.5,48.7,-100.00,North,-999,0.0,0.0,43,0.00,,,-99.99,FreeWX-Wi 1.02,2013-10-01 20:38:00,
2013-10-01 16:48:00,72.5,48.7,-100.00,North,-999,0.0,0.0,43,0.00,,,-99.99,FreeWX-Wi 1.02,2013-10-01 20:48:00,
2013-10-01 16:58:00,72.3,48.6,-100.00,North,-999,0.0,0.0,43,0.00,,,-99.99,FreeWX-Wi 1.02,2013-10-01 20:58:00,
2013-10-01 17:08:00,72.1,48.4,-100.00,North,-999,0.0,0.0,43,0.00,,,-99.99,FreeWX-Wi 1.02,2013-10-01 21:08:00,
2013-10-01 17:18:00,72.1,48.9,-100.00,North,-999,0.0,0.0,44,0.00,,,-99.99,FreeWX-Wi 1.02,2013-10-01 21:18:00,
2013-10-01 17:28:00,72.3,49.8,-100.00,North,-999,0.0,0.0,45,0.00,,,-99.99,FreeWX-Wi 1.02,2013-10-01 21:28:00,
2013-10-01 17:38:00,72.3,50.4,-100.00,North,-999,0.0,0.0,46,0.00,,,-99.99,FreeWX-Wi 1.02,2013-10-01 21:38:00,
2013-10-01 17:48:00,72.5,50.5,-100.00,North,-999,0.0,0.0,46,0.00,,,-99.99,FreeWX-Wi 1.02,2013-10-01 21:48:00,
2013-10-01 17:58:00,72.3,50.9,-100.00,North,-999,0.0,0.0,47,0.00,,,-99.99,FreeWX-Wi 1.02,2013-10-01 21:58:00,
2013-10-01 18:08:00,72.1,50.7,-100.00,North,-999,0.0,0.0,47,0.00,,,-99.99,FreeWX-Wi 1.02,2013-10-01 22:08:00,
2013-10-01 18:18:00,71.8,49.8,-100.00,North,-999,0.0,0.0,46,0.00,,,-99.99,FreeWX-Wi 1.02,2013-10-01 22:18:00,
2013-10-01 18:28:00,71.6,50.4,-100.00,North,-999,0.0,0.0,47,0.00,,,-99.99,FreeWX-Wi 1.02,2013-10-01 22:28:00,
2013-10-01 18:38:00,71.4,50.2,-100.00,North,-999,0.0,0.0,47,0.00,,,-99.99,FreeWX-Wi 1.02,2013-10-01 22:38:00,
2013-10-01 18:48:00,71.1,50.4,-100.00,North,-999,0.0,0.0,48,0.00,,,-99.99,FreeWX-Wi 1.02,2013-10-01 22:48:00,
2013-10-01 18:58:00,70.7,50.0,-100.00,North,-999,0.0,0.0,48,0.00,,,-99.99,FreeWX-Wi 1.02,2013-10-01 22:58:00,
2013-10-01 19:08:00,70.5,50.4,-100.00,North,-999,0.0,0.0,49,0.00,,,-99.99,FreeWX-Wi 1.02,2013-10-01 23:08:00,
2013-10-01 19:18:00,70.3,50.7,-100.00,North,-999,0.0,0.0,50,0.00,,,-99.99,FreeWX-Wi 1.02,2013-10-01 23:18:00,
2013-10-01 19:28:00,70.0,51.1,-100.00,North,-999,0.0,0.0,51,0.00,,,-99.99,FreeWX-Wi 1.02,2013-10-01 23:28:00,
2013-10-01 19:38:00,69.4,51.1,-100.00,North,-999,0.0,0.0,52,0.00,,,-99.99,FreeWX-Wi 1.02,2013-10-01 23:38:00,
2013-10-01 19:48:00,69.3,50.9,-100.00,North,-999,0.0,0.0,52,0.00,,,-99.99,FreeWX-Wi 1.02,2013-10-01 23:48:00,
2013-10-01 19:58:00,68.9,51.1,-100.00,North,-999,0.0,0.0,53,0.00,,,-99.99,FreeWX-Wi 1.02,2013-10-01 23:58:00,
2013-10-01 20:08:00,68.5,50.7,-100.00,North,-999,0.0,0.0,53,0.00,,,-99.99,FreeWX-Wi 1.02,2013-10-02 00:08:00,
2013-10-01 20:18:00,68.4,51.1,-100.00,North,-999,0.0,0.0,54,0.00,,,-99.99,FreeWX-Wi 1.02,2013-10-02 00:18:00,
2013-10-01 20:28:00,68.2,50.9,-100.00,North,-999,0.0,0.0,54,0.00,,,-99.99,FreeWX-Wi 1.02,2013-10-02 00:28:00,
2013-10-01 20:38:00,67.8,51.1,-100.00,North,-999,0.0,0.0,55,0.00,,,-99.99,FreeWX-Wi 1.02,2013-10-02 00:38:00,
2013-10-01 20:48:00,67.6,50.9,-100.00,North,-999,0.0,0.0,55,0.00,,,-99.99,FreeWX-Wi 1.02,2013-10-02 00:48:00,
2013-10-01 20:58:00,67.5,51.3,-100.00,North,-999,0.0,0.0,56,0.00,,,-99.99,FreeWX-Wi 1.02,2013-10-02 00:58:00,
2013-10-01 21:08:00,67.3,51.1,-100.00,North,-999,0.0,0.0,56,0.00,,,-99.99,FreeWX-Wi 1.02,2013-10-02 01:08:00,
2013-10-01 21:18:00,67.1,50.9,-100.00,North,-999,0.0,0.0,56,0.00,,,-99.99,FreeWX-Wi 1.02,2013-10-02 01:18:00,
2013-10-01 21:28:00,66.9,50.7,-100.00,North,-999,0.0,0.0,56,0.00,,,-99.99,FreeWX-Wi 1.02,2013-10-02 01:28:00,
2013-10-01 21:38:00,66.6,50.9,-100.00,North,-999,0.0,0.0,57,0.00,,,-99.99,FreeWX-Wi 1.02,2013-10-02 01:38:00,
2013-10-01 21:48:00,66.4,50.7,-100.00,North,-999,0.0,0.0,57,0.00,,,-99.99,FreeWX-Wi 1.02,2013-10-02 01:48:00,
2013-10-01 21:58:00,66.4,50.7,-100.00,North,-999,0.0,0.0,57,0.00,,,-99.99,FreeWX-Wi 1.02,2013-10-02 01:58:00,
2013-10-01 22:08:00,66.2,50.5,-100.00,North,-999,0.0,0.0,57,0.00,,,-99.99,FreeWX-Wi 1.02,2013-10-02 02:08:00,
2013-10-01 22:18:00,66.0,50.7,-100.00,North,-999,0.0,0.0,58,0.00,,,-99.99,FreeWX-Wi 1.02,2013-10-02 02:18:00,
2013-10-01 22:28:00,65.8,50.7,-100.00,North,-999,0.0,0.0,58,0.00,,,-99.99,FreeWX-Wi 1.02,2013-10-02 02:28:00,
2013-10-01 22:38:00,65.7,50.5,-100.00,North,-999,0.0,0.0,58,0.00,,,-99.99,FreeWX-Wi 1.02,2013-10-02 02:38:00,
2013-10-01 22:48:00,65.5,50.4,-100.00,North,-999,0.0,0.0,58,0.00,,,-99.99,FreeWX-Wi 1.02,2013-10-02 02:48:00,
2013-10-01 22:58:00,65.3,50.5,-100.00,North,-999,0.0,0.0,59,0.00,,,-99.99,FreeWX-Wi 1.02,2013-10-02 02:58:00,
2013-10-01 23:08:00,65.1,50.4,-100.00,North,-999,0.0,0.0,59,0.00,,,-99.99,FreeWX-Wi 1.02,2013-10-02 03:08:00,
2013-10-01 23:18:00,64.9,50.7,-100.00,North,-999,0.0,0.0,60,0.00,,,-99.99,FreeWX-Wi 1.02,2013-10-02 03:18:00,
2013-10-01 23:28:00,64.8,50.5,-100.00,North,-999,0.0,0.0,60,0.00,,,-99.99,FreeWX-Wi 1.02,2013-10-02 03:28:00,
2013-10-01 23:38:00,64.8,50.5,-100.00,North,-999,0.0,0.0,60,0.00,,,-99.99,FreeWX-Wi 1.02,2013-10-02 03:38:00,
2013-10-01 23:48:00,64.6,50.4,-100.00,North,-999,0.0,0.0,60,0.00,,,-99.99,FreeWX-Wi 1.02,2013-10-02 03:48:00,
2013-10-01 23:58:00,64.4,50.7,-100.00,North,-999,0.0,0.0,61,0.00,,,-99.99,FreeWX-Wi 1.02,2013-10-02 03:58:00,